Time;durP1;ratioP1;P1;durP2;ratioP2;P2;SDS_P1;SDS_P2;PMS_P1;PMS_P2;Temp;Humidity;BMP_temperature;BMP_pressure;BME280_temperature;BME280_humidity;BME280_pressure;Samples;Min_cycle;Max_cycle;Signal;HPM_P1;HPM_P2
2022/08/17 00:01:23;;;;;;;6.10;4.00;;;;;;;21.43;55.89;99748.69;5103259;28;20044;-74
2022/08/17 00:03:53;;;;;;;5.15;3.63;;;;;;;21.49;55.80;99759.72;5117665;28;20352;-75
2022/08/17 00:06:26;;;;;;;4.90;3.95;;;;;;;21.50;55.46;99756.00;5118247;28;20468;-74
2022/08/17 00:08:59;;;;;;;7.47;3.63;;;;;;;21.50;55.82;99760.56;5109440;28;20079;-73
2022/08/17 00:11:29;;;;;;;4.60;3.78;;;;;;;21.50;55.71;99764.09;5103983;28;20509;-75
2022/08/17 00:14:03;;;;;;;7.40;4.07;;;;;;;21.47;55.87;99766.25;5104835;28;20051;-72
2022/08/17 00:16:34;;;;;;;5.20;3.90;;;;;;;21.31;56.10;99753.50;5104423;28;20605;-75
2022/08/17 00:19:23;;;;;;;4.28;3.88;;;;;;;21.32;56.64;99760.59;5106224;27;20051;-75
2022/08/17 00:21:52;;;;;;;6.78;4.03;;;;;;;21.18;56.98;99756.56;5106999;28;20574;-74
2022/08/17 00:24:38;;;;;;;6.00;4.10;;;;;;;21.13;57.18;99758.88;5108122;28;20055;-74
2022/08/17 00:27:05;;;;;;;5.68;3.85;;;;;;;21.07;57.21;99761.34;5105285;28;20510;-74
2022/08/17 00:29:31;;;;;;;4.30;3.80;;;;;;;20.91;57.72;99741.34;5101612;28;20476;-74
2022/08/17 00:32:00;;;;;;;4.47;3.90;;;;;;;20.94;57.81;99754.47;5099842;28;20454;-74
2022/08/17 00:34:46;;;;;;;5.57;4.20;;;;;;;20.93;57.95;99752.81;5107813;28;20056;-74
2022/08/17 00:37:13;;;;;;;5.80;4.55;;;;;;;20.90;58.22;99753.13;5107103;28;20520;-76
2022/08/17 00:39:40;;;;;;;4.75;3.90;;;;;;;20.75;58.17;99733.13;5102127;27;20522;-73
2022/08/17 00:42:17;;;;;;;5.32;3.88;;;;;;;20.75;58.45;99727.75;5094243;28;20453;-75
2022/08/17 00:44:44;;;;;;;5.63;4.28;;;;;;;20.89;58.52;99754.13;5104101;28;20044;-74
2022/08/17 00:47:11;;;;;;;7.13;4.45;;;;;;;20.77;58.50;99749.13;5107807;28;20074;-76
2022/08/17 00:49:38;;;;;;;5.43;4.25;;;;;;;20.88;58.83;99756.97;5104069;28;20079;-76
2022/08/17 00:52:14;;;;;;;7.35;3.97;;;;;;;20.70;58.55;99723.81;5109081;28;20456;-76
2022/08/17 00:54:43;;;;;;;4.38;3.97;;;;;;;20.96;58.29;99757.03;5101481;28;20047;-77
2022/08/17 00:57:17;;;;;;;4.47;4.07;;;;;;;20.95;58.25;99760.72;5106020;27;20046;-75
2022/08/17 00:59:48;;;;;;;6.00;4.22;;;;;;;20.96;58.21;99754.34;5105047;27;20329;-76
2022/08/17 01:02:33;;;;;;;5.18;3.90;;;;;;;20.82;58.08;99722.56;5105306;28;20069;-77
2022/08/17 01:05:15;;;;;;;7.18;4.35;;;;;;;20.82;58.45;99734.19;5106590;28;20046;-73
2022/08/17 01:07:46;;;;;;;6.35;4.00;;;;;;;20.80;58.62;99751.47;5105773;28;20047;-71
2022/08/17 01:10:15;;;;;;;4.88;4.32;;;;;;;20.67;58.96;99747.31;5105586;28;20054;-74
2022/08/17 01:13:03;;;;;;;6.57;4.10;;;;;;;20.62;59.54;99748.78;5094562;28;20179;-73
2022/08/17 01:15:34;;;;;;;4.95;4.18;;;;;;;20.59;59.56;99752.63;5104902;28;20068;-74
2022/08/17 01:18:01;;;;;;;4.88;4.03;;;;;;;20.61;59.91;99755.19;5103078;28;20052;-73
2022/08/17 01:20:28;;;;;;;5.10;4.00;;;;;;;20.61;59.50;99753.34;5104090;28;20135;-75
2022/08/17 01:22:55;;;;;;;6.38;4.18;;;;;;;20.62;59.24;99755.00;5106084;28;20079;-74
2022/08/17 01:25:21;;;;;;;5.55;4.28;;;;;;;20.61;59.61;99758.72;5083174;28;20048;-76
2022/08/17 01:27:48;;;;;;;5.68;4.03;;;;;;;20.67;59.41;99750.00;5105990;28;20075;-73
2022/08/17 01:30:16;;;;;;;4.75;4.05;;;;;;;20.67;59.07;99758.09;5086823;28;20440;-74
2022/08/17 01:33:03;;;;;;;7.03;3.85;;;;;;;20.65;59.24;99754.69;5093981;27;20058;-74
2022/08/17 01:35:29;;;;;;;4.60;4.20;;;;;;;20.57;58.96;99741.19;5102173;28;20051;-74
2022/08/17 01:37:56;;;;;;;6.43;4.20;;;;;;;20.57;58.94;99743.88;5098416;28;20561;-73
2022/08/17 01:40:45;;;;;;;7.57;4.30;;;;;;;20.67;58.99;99771.53;5112080;28;20086;-74
2022/08/17 01:43:20;;;;;;;5.55;4.35;;;;;;;20.53;59.03;99769.38;5118948;28;20043;-75
2022/08/17 01:45:51;;;;;;;5.35;4.35;;;;;;;20.35;59.75;99749.63;5102161;28;20420;-74
2022/08/17 01:48:37;;;;;;;6.97;4.47;;;;;;;20.39;60.06;99764.50;5109243;28;20766;-74
2022/08/17 01:51:06;;;;;;;5.38;4.18;;;;;;;20.37;60.17;99762.94;5107210;28;20059;-74
2022/08/17 01:53:40;;;;;;;4.90;3.90;;;;;;;20.37;60.10;99769.16;5104178;28;20604;-73
2022/08/17 01:56:09;;;;;;;4.35;3.95;;;;;;;20.32;60.29;99761.50;5099705;28;20052;-73
2022/08/17 01:58:38;;;;;;;6.13;4.00;;;;;;;20.33;60.21;99756.97;5102682;28;20136;-71
2022/08/17 02:01:05;;;;;;;6.90;4.22;;;;;;;20.27;60.65;99747.69;5098459;28;20151;-73
2022/08/17 02:03:34;;;;;;;6.05;4.22;;;;;;;20.29;60.65;99745.69;5106491;28;20052;-75
2022/08/17 02:06:02;;;;;;;5.93;4.13;;;;;;;20.31;60.73;99748.22;5104917;28;20898;-74
2022/08/17 02:08:34;;;;;;;4.60;4.20;;;;;;;20.19;60.96;99723.38;5102979;28;20380;-71
2022/08/17 02:11:08;;;;;;;6.50;4.40;;;;;;;20.33;60.78;99741.69;5099420;28;20715;-74
2022/08/17 02:13:38;;;;;;;5.47;3.95;;;;;;;20.19;60.97;99725.22;5104510;28;20039;-74
2022/08/17 02:16:05;;;;;;;5.72;3.92;;;;;;;20.25;61.12;99732.69;5097372;28;20643;-73
2022/08/17 02:18:31;;;;;;;8.68;4.00;;;;;;;20.34;61.06;99739.84;5090536;28;20062;-76
2022/08/17 02:20:58;;;;;;;6.97;4.82;;;;;;;20.29;60.91;99736.78;5098641;28;20039;-73
2022/08/17 02:23:29;;;;;;;5.90;4.28;;;;;;;20.27;61.39;99738.78;5108189;28;20137;-73
2022/08/17 02:25:58;;;;;;;4.78;3.78;;;;;;;20.30;61.14;99743.88;5105654;28;20521;-74
2022/08/17 02:28:25;;;;;;;6.65;4.63;;;;;;;20.27;61.21;99749.53;5100700;28;20130;-74
2022/08/17 02:30:52;;;;;;;8.48;4.40;;;;;;;20.20;61.09;99743.03;5095752;28;20276;-74
2022/08/17 02:33:27;;;;;;;4.88;4.10;;;;;;;20.16;61.49;99742.50;5105479;27;20169;-72
2022/08/17 02:36:10;;;;;;;4.68;4.28;;;;;;;20.10;61.57;99743.09;5100291;28;20149;-75
2022/08/17 02:38:38;;;;;;;5.35;4.18;;;;;;;20.08;61.57;99741.56;5101889;28;20821;-72
2022/08/17 02:41:04;;;;;;;5.90;4.05;;;;;;;20.08;61.84;99750.47;5099544;27;20069;-74
2022/08/17 02:43:31;;;;;;;5.80;4.32;;;;;;;20.04;61.83;99742.84;5105666;28;20067;-73
2022/08/17 02:45:58;;;;;;;4.63;4.22;;;;;;;20.07;61.85;99747.91;5102811;28;20047;-72
2022/08/17 02:48:24;;;;;;;5.78;4.18;;;;;;;20.01;61.78;99738.59;5107907;27;20039;-74
2022/08/17 02:50:57;;;;;;;5.65;4.18;;;;;;;19.99;61.88;99742.47;5104316;28;20051;-74
2022/08/17 02:53:24;;;;;;;5.68;4.30;;;;;;;20.03;61.99;99741.13;5104135;28;20070;-72
2022/08/17 02:55:51;;;;;;;4.78;4.38;;;;;;;19.91;62.09;99725.22;5105402;28;20162;-77
2022/08/17 02:58:19;;;;;;;10.77;4.50;;;;;;;20.06;62.08;99749.75;5100813;28;20502;-73
2022/08/17 03:01:02;;;;;;;6.53;4.63;;;;;;;20.00;62.28;99752.19;5102357;28;20105;-74
2022/08/17 03:03:28;;;;;;;6.68;4.55;;;;;;;19.88;62.22;99736.25;5104521;28;20044;-75
2022/08/17 03:05:55;;;;;;;5.50;4.68;;;;;;;19.98;62.40;99759.56;5102809;28;20062;-71
2022/08/17 03:08:22;;;;;;;6.03;4.35;;;;;;;20.00;62.46;99760.25;5104372;28;20055;-73
2022/08/17 03:10:49;;;;;;;7.63;4.55;;;;;;;19.95;62.32;99756.19;5099358;28;20127;-75
2022/08/17 03:13:16;;;;;;;6.97;4.78;;;;;;;19.79;62.26;99750.59;5098869;28;20073;-75
2022/08/17 03:15:44;;;;;;;7.57;4.50;;;;;;;19.83;62.98;99765.38;5105263;28;20449;-71
2022/08/17 03:18:12;;;;;;;5.32;4.43;;;;;;;19.82;62.31;99761.03;5095059;28;20043;-74
2022/08/17 03:20:52;;;;;;;;;;;;;;;19.82;62.68;99766.41;5106486;28;22015;-74
2022/08/17 03:23:19;;;;;;;6.82;4.55;;;;;;;19.72;62.78;99765.56;5100801;28;19920;-73
2022/08/17 03:25:50;;;;;;;7.78;4.55;;;;;;;19.57;62.83;99749.06;5101716;28;20521;-74
2022/08/17 03:28:19;;;;;;;5.97;4.53;;;;;;;19.67;62.73;99773.25;5102100;28;20056;-75
2022/08/17 03:30:46;;;;;;;7.15;4.80;;;;;;;19.52;62.98;99745.13;5101975;28;20690;-74
2022/08/17 03:33:13;;;;;;;7.00;4.78;;;;;;;19.57;63.31;99761.66;5105452;28;20082;-74
2022/08/17 03:35:40;;;;;;;4.70;4.25;;;;;;;19.48;63.79;99751.75;5099821;28;20070;-73
2022/08/17 03:38:09;;;;;;;5.47;4.45;;;;;;;19.51;63.61;99768.47;5102925;28;20089;-75
2022/08/17 03:40:36;;;;;;;5.57;4.78;;;;;;;19.36;63.66;99737.63;5100486;28;20067;-74
2022/08/17 03:43:23;;;;;;;5.10;4.57;;;;;;;19.43;63.75;99757.56;5096747;28;20052;-75
2022/08/17 03:57:12;;;;;;;6.95;4.90;;;;;;;19.54;63.93;99761.94;5099054;28;20067;-75
2022/08/17 03:59:39;;;;;;;5.35;4.22;;;;;;;19.55;63.84;99769.00;5096898;28;20073;-75
2022/08/17 04:02:14;;;;;;;7.05;5.03;;;;;;;19.57;63.51;99764.34;5107125;28;20549;-74
2022/08/17 04:04:41;;;;;;;7.32;4.43;;;;;;;19.50;63.37;99752.50;5105033;28;20075;-76
2022/08/17 04:07:08;;;;;;;6.82;5.03;;;;;;;19.39;63.67;99734.66;5095336;28;20048;-72
2022/08/17 04:09:35;;;;;;;5.20;4.40;;;;;;;19.53;63.37;99757.56;5086833;28;20052;-75
2022/08/17 04:12:03;;;;;;;7.15;5.05;;;;;;;19.49;63.87;99748.09;5099454;28;20048;-75
2022/08/17 04:14:35;;;;;;;8.02;4.53;;;;;;;19.51;63.65;99749.66;5101469;28;20108;-74
2022/08/17 04:17:18;;;;;;;5.15;4.65;;;;;;;19.50;63.68;99739.06;5104033;28;20392;-76
2022/08/17 04:19:45;;;;;;;7.05;4.70;;;;;;;19.50;63.65;99742.59;5098990;28;20051;-73
2022/08/17 04:22:12;;;;;;;5.68;4.30;;;;;;;19.52;63.41;99747.81;5110517;28;20082;-75
2022/08/17 04:25:06;;;;;;;6.47;4.70;;;;;;;19.48;63.60;99757.13;5116452;28;20044;-74
2022/08/17 04:27:33;;;;;;;5.20;4.35;;;;;;;19.33;63.77;99731.72;5108338;28;20154;-76
2022/08/17 04:30:00;;;;;;;4.88;4.45;;;;;;;19.43;63.80;99743.28;5111027;28;20613;-74
2022/08/17 04:32:27;;;;;;;5.47;4.30;;;;;;;19.46;63.87;99753.75;5111703;28;20055;-75
2022/08/17 04:35:20;;;;;;;4.97;4.25;;;;;;;19.49;63.96;99761.50;5113062;28;20849;-74
2022/08/17 04:37:47;;;;;;;5.40;4.60;;;;;;;19.41;64.03;99745.25;5110577;28;20066;-75
2022/08/17 04:43:01;;;;;;;6.18;4.82;;;;;;;19.49;63.76;99751.66;5106808;28;20476;-76
2022/08/17 04:45:28;;;;;;;6.93;4.75;;;;;;;19.52;63.48;99754.03;5105936;27;20055;-74
2022/08/17 04:47:59;;;;;;;8.23;4.53;;;;;;;19.58;63.65;99768.72;5106278;28;20423;-75
2022/08/17 04:50:26;;;;;;;6.15;4.30;;;;;;;19.47;63.47;99750.91;5096611;28;20043;-74
2022/08/17 04:52:53;;;;;;;4.88;4.32;;;;;;;19.58;63.18;99757.97;5108047;28;20079;-74
2022/08/17 04:55:20;;;;;;;7.30;4.47;;;;;;;19.70;63.07;99769.41;5101333;28;20126;-75
2022/08/17 04:57:47;;;;;;;6.68;4.60;;;;;;;19.70;62.88;99770.25;5106116;28;20047;-74
2022/08/17 05:00:13;;;;;;;8.93;5.18;;;;;;;19.75;62.55;99777.88;5106641;28;20059;-74
2022/08/17 05:02:48;;;;;;;5.03;4.53;;;;;;;19.61;63.04;99757.69;5104601;28;20096;-74
2022/08/17 05:05:29;;;;;;;7.10;4.60;;;;;;;19.74;63.09;99784.25;5099742;28;20047;-74
2022/08/17 05:07:58;;;;;;;5.53;4.47;;;;;;;19.72;63.17;99776.31;5106220;28;20056;-71
2022/08/17 05:10:28;;;;;;;6.60;4.60;;;;;;;19.79;63.36;99788.19;5104477;28;20043;-75
2022/08/17 05:12:59;;;;;;;5.53;4.97;;;;;;;19.84;63.36;99793.94;5105154;28;20101;-75
2022/08/17 05:15:28;;;;;;;8.43;5.00;;;;;;;19.88;63.58;99790.00;5102657;28;20104;-74
2022/08/17 05:17:58;;;;;;;7.30;4.55;;;;;;;19.82;63.13;99766.41;5092828;28;20040;-72
2022/08/17 05:20:25;;;;;;;5.93;4.70;;;;;;;19.95;63.30;99772.31;5096842;28;23111;-76
2022/08/17 05:22:59;;;;;;;4.93;4.43;;;;;;;20.09;63.52;99786.25;5103448;28;20057;-72
2022/08/17 05:25:30;;;;;;;5.00;4.50;;;;;;;20.13;62.96;99791.19;5101646;28;20454;-71
2022/08/17 05:28:03;;;;;;;9.70;4.78;;;;;;;20.16;62.88;99793.56;5102168;28;20043;-76
2022/08/17 05:30:32;;;;;;;8.65;5.20;;;;;;;20.28;62.71;99796.94;5105654;28;20048;-75
2022/08/17 05:33:01;;;;;;;6.43;4.85;;;;;;;20.38;62.11;99789.69;5105428;28;20039;-75
2022/08/17 05:35:30;;;;;;;6.00;4.50;;;;;;;20.48;61.45;99777.03;5102482;28;20051;-73
2022/08/17 05:37:57;;;;;;;6.95;4.63;;;;;;;20.77;60.89;99802.94;5083351;28;20093;-73
2022/08/17 05:40:24;;;;;;;5.13;4.68;;;;;;;20.93;60.36;99800.41;5097865;28;20039;-75
2022/08/17 05:43:03;;;;;;;7.53;4.22;;;;;;;21.01;60.18;99793.25;5099665;28;20035;-75
2022/08/17 05:45:31;;;;;;;5.45;4.90;;;;;;;21.17;59.31;99786.34;5103640;27;20066;-75
2022/08/17 05:48:18;;;;;;;7.90;5.18;;;;;;;21.25;59.01;99795.34;5098873;28;20047;-76
2022/08/17 05:50:59;;;;;;;5.00;4.50;;;;;;;21.19;59.21;99781.66;5107117;28;20056;-74
2022/08/17 05:53:49;;;;;;;5.28;4.38;;;;;;;21.39;59.43;99799.38;5099935;28;20035;-76
2022/08/17 05:56:51;;;;;;;6.00;4.72;;;;;;;21.41;58.77;99797.34;5095465;28;20072;-74
2022/08/17 05:59:38;;;;;;;5.10;4.32;;;;;;;21.43;59.04;99802.56;5026500;28;20096;-71
2022/08/17 06:02:38;;;;;;;7.22;4.93;;;;;;;21.49;58.54;99804.66;5091222;28;20102;-75
2022/08/17 06:05:16;;;;;;;7.75;4.43;;;;;;;21.38;58.32;99772.59;5094347;28;20043;-75
2022/08/17 06:07:48;;;;;;;5.25;4.50;;;;;;;21.44;58.12;99778.19;5097504;27;20524;-75
2022/08/17 06:10:31;;;;;;;6.82;4.80;;;;;;;21.42;58.04;99780.19;5083736;27;20465;-74
2022/08/17 06:13:01;;;;;;;5.07;4.47;;;;;;;21.47;58.51;99783.25;5098122;28;20134;-75
2022/08/17 06:15:47;;;;;;;5.30;4.30;;;;;;;21.39;58.03;99745.50;5099745;27;20093;-75
2022/08/17 06:18:16;;;;;;;7.03;4.47;;;;;;;21.58;58.02;99783.00;5078070;28;20135;-76
2022/08/17 06:20:50;;;;;;;5.43;4.68;;;;;;;21.59;57.56;99760.44;5094334;28;20082;-76
2022/08/17 06:23:28;;;;;;;8.68;4.57;;;;;;;21.78;57.42;99767.47;5099246;28;20345;-77
2022/08/17 06:26:02;;;;;;;8.60;4.30;;;;;;;21.90;56.94;99790.47;5097613;28;20113;-75
2022/08/17 06:28:45;;;;;;;6.38;4.72;;;;;;;22.01;56.60;99784.84;5098212;28;20410;-73
2022/08/17 06:31:21;;;;;;;6.00;4.45;;;;;;;22.21;56.38;99787.28;5080450;28;20047;-74
2022/08/17 06:33:49;;;;;;;13.05;5.22;;;;;;;22.32;56.07;99779.78;5095157;28;20087;-75
2022/08/17 06:37:08;;;;;;;7.45;4.60;;;;;;;22.46;55.12;99791.81;5089566;28;20121;-74
2022/08/17 06:39:49;;;;;;;6.13;4.55;;;;;;;22.49;55.18;99793.34;5037124;28;20200;-72
2022/08/17 06:42:39;;;;;;;6.30;4.65;;;;;;;22.42;55.79;99773.41;5057312;28;21140;-74
2022/08/17 06:45:40;;;;;;;5.03;4.53;;;;;;;22.53;54.62;99790.13;5092540;28;20533;-75
2022/08/17 06:48:35;;;;;;;6.78;4.80;;;;;;;22.51;54.81;99807.50;5098911;28;20054;-72
2022/08/17 06:51:09;;;;;;;4.75;4.35;;;;;;;22.52;54.73;99812.72;5102066;28;20047;-74
2022/08/17 06:53:51;;;;;;;5.90;4.95;;;;;;;22.50;55.02;99825.56;5092302;28;20103;-71
2022/08/17 06:56:31;;;;;;;4.90;4.05;;;;;;;22.66;54.48;99824.78;5098294;28;20550;-74
2022/08/17 06:59:23;;;;;;;6.93;4.43;;;;;;;22.89;53.21;99823.19;5111120;28;20510;-70
2022/08/17 07:01:51;;;;;;;10.35;4.50;;;;;;;23.00;53.61;99811.22;5101665;27;20077;-75
2022/08/17 07:04:23;;;;;;;5.32;4.25;;;;;;;22.91;53.16;99804.13;5099375;28;20054;-74
2022/08/17 07:06:58;;;;;;;4.97;4.03;;;;;;;22.96;53.16;99812.56;5096293;28;20035;-72
2022/08/17 07:09:30;;;;;;;6.93;4.40;;;;;;;22.87;53.63;99813.53;5106292;28;20048;-73
2022/08/17 07:12:19;;;;;;;6.43;4.60;;;;;;;22.70;55.13;99791.88;5104759;28;20056;-74
2022/08/17 07:14:58;;;;;;;8.43;4.75;;;;;;;22.72;54.42;99819.56;5097018;28;20048;-72
2022/08/17 07:17:26;;;;;;;4.80;4.28;;;;;;;22.66;55.04;99809.44;5107412;28;20055;-74
2022/08/17 07:20:21;;;;;;;8.40;4.68;;;;;;;22.67;55.07;99811.09;5087151;28;20044;-73
2022/08/17 07:22:52;;;;;;;6.30;4.57;;;;;;;22.75;55.06;99819.22;5102766;28;20442;-74
2022/08/17 07:25:26;;;;;;;5.88;4.60;;;;;;;22.80;54.97;99807.13;5081452;28;20159;-74
2022/08/17 07:27:58;;;;;;;6.63;4.43;;;;;;;22.87;54.76;99811.69;5100601;28;20501;-75
2022/08/17 07:30:59;;;;;;;9.25;4.93;;;;;;;22.95;54.16;99809.03;5107438;28;20138;-75
2022/08/17 07:33:30;;;;;;;7.00;4.70;;;;;;;22.98;53.87;99800.56;5063189;28;20044;-73
2022/08/17 07:35:59;;;;;;;5.28;4.70;;;;;;;22.88;53.74;99772.03;5106250;28;20035;-74
2022/08/17 07:38:32;;;;;;;7.18;4.90;;;;;;;23.09;54.03;99789.47;5110088;28;20498;-75
2022/08/17 07:41:05;;;;;;;8.65;5.07;;;;;;;23.24;53.46;99789.66;5103915;28;20104;-72
2022/08/17 07:43:40;;;;;;;13.40;5.22;;;;;;;23.49;53.46;99813.97;5103194;28;20400;-75
2022/08/17 07:49:23;;;;;;;7.72;5.53;;;;;;;23.82;51.42;99818.38;5097494;28;20050;-74
2022/08/17 07:51:50;;;;;;;7.75;5.20;;;;;;;23.89;51.48;99832.91;5113989;27;20043;-75
2022/08/17 07:54:36;;;;;;;10.77;4.97;;;;;;;23.98;50.87;99823.75;5106315;28;20132;-72
2022/08/17 07:57:12;;;;;;;9.38;5.55;;;;;;;24.18;51.13;99834.22;5108415;28;20039;-72
2022/08/17 08:00:02;;;;;;;9.88;5.60;;;;;;;24.31;50.40;99834.53;5115380;27;20113;-77
2022/08/17 08:02:33;;;;;;;10.93;6.05;;;;;;;24.23;49.83;99826.44;5105631;28;20040;-73
2022/08/17 08:05:02;;;;;;;10.07;5.45;;;;;;;24.23;49.85;99839.97;5111336;28;20065;-73
2022/08/17 08:07:49;;;;;;;12.07;5.30;;;;;;;24.26;50.04;99840.47;5113377;28;20047;-76
2022/08/17 08:10:37;;;;;;;9.18;5.82;;;;;;;24.13;50.15;99835.56;5109096;27;20051;-73
2022/08/17 08:13:19;;;;;;;7.85;5.65;;;;;;;24.18;50.29;99853.16;5095763;28;20052;-72
2022/08/17 08:15:49;;;;;;;8.40;5.50;;;;;;;24.13;50.37;99838.28;5103729;28;20131;-75
2022/08/17 08:18:35;;;;;;;9.73;5.85;;;;;;;24.02;50.30;99835.94;5103434;28;20048;-74
2022/08/17 08:21:30;;;;;;;9.30;5.70;;;;;;;23.82;51.24;99831.06;5102435;28;20165;-73
2022/08/17 08:24:35;;;;;;;7.13;5.30;;;;;;;23.66;51.92;99826.50;5105290;28;20135;-72
2022/08/17 08:27:10;;;;;;;7.53;6.20;;;;;;;23.61;53.20;99837.81;5095310;28;20123;-73
2022/08/17 08:29:43;;;;;;;10.18;6.53;;;;;;;23.49;53.73;99841.84;5102366;28;20093;-73
2022/08/17 08:32:44;;;;;;;7.38;5.18;;;;;;;23.42;54.00;99844.38;5086884;27;20097;-75
2022/08/17 08:35:43;;;;;;;7.65;6.85;;;;;;;23.48;54.61;99844.69;5070920;28;20048;-76
2022/08/17 08:38:22;;;;;;;8.15;5.90;;;;;;;23.45;53.92;99835.09;5078942;28;20074;-75
2022/08/17 08:41:11;;;;;;;10.33;5.90;;;;;;;23.56;53.30;99875.34;5076254;28;20060;-76
2022/08/17 08:43:45;;;;;;;9.00;6.65;;;;;;;23.59;54.94;99882.25;5079399;28;20056;-74
2022/08/17 08:46:54;;;;;;;11.70;6.80;;;;;;;23.45;56.33;99859.41;5082017;28;20040;-74
2022/08/17 08:49:30;;;;;;;8.50;5.90;;;;;;;23.54;55.13;99880.06;5089646;28;20539;-74
2022/08/17 08:52:34;;;;;;;12.75;6.45;;;;;;;23.37;57.61;99883.72;5076342;28;20592;-76
2022/08/17 08:55:34;;;;;;;15.50;6.15;;;;;;;23.26;58.35;99886.75;5088221;28;20110;-76
2022/08/17 08:58:13;;;;;;;13.38;6.15;;;;;;;23.07;60.22;99890.56;5060613;28;20092;-74
2022/08/17 09:01:07;;;;;;;10.60;6.20;;;;;;;23.11;62.49;99891.09;5082056;28;20048;-77
2022/08/17 09:04:13;;;;;;;11.60;6.38;;;;;;;22.99;62.23;99883.28;5085826;28;20054;-75
2022/08/17 09:07:14;;;;;;;7.38;5.90;;;;;;;22.79;62.96;99878.31;5080603;28;20040;-74
2022/08/17 09:10:12;;;;;;;9.43;7.00;;;;;;;22.64;64.68;99891.56;5090318;28;20048;-72
2022/08/17 09:13:06;;;;;;;10.48;6.97;;;;;;;22.59;64.71;99889.34;5095647;28;20107;-73
2022/08/17 09:15:56;;;;;;;8.68;6.53;;;;;;;22.48;64.01;99857.25;5097761;28;20054;-76
2022/08/17 09:18:32;;;;;;;8.10;6.72;;;;;;;22.63;63.30;99869.13;5088328;28;20152;-74
2022/08/17 09:21:45;;;;;;;10.85;6.70;;;;;;;22.69;62.85;99876.56;5088768;28;20162;-76
2022/08/17 09:24:43;;;;;;;11.73;6.82;;;;;;;22.57;62.72;99867.06;5078252;28;20048;-74
2022/08/17 09:27:15;;;;;;;8.70;6.50;;;;;;;22.66;62.64;99871.50;5085579;28;20071;-76
2022/08/17 09:29:47;;;;;;;9.73;6.75;;;;;;;22.86;62.80;99877.50;5067856;28;20048;-75
2022/08/17 09:32:21;;;;;;;8.15;6.47;;;;;;;22.94;62.18;99872.16;5089367;28;20129;-75
2022/08/17 09:34:55;;;;;;;8.35;6.28;;;;;;;23.16;62.31;99881.47;5074577;28;20052;-74
2022/08/17 09:37:34;;;;;;;7.20;6.50;;;;;;;23.37;61.76;99875.59;5085327;28;20130;-71
2022/08/17 09:40:23;;;;;;;9.43;6.97;;;;;;;23.55;62.01;99879.03;5087000;28;20052;-72
2022/08/17 09:43:02;;;;;;;10.25;7.30;;;;;;;23.72;62.57;99877.19;5085155;28;20648;-72
2022/08/17 09:45:49;;;;;;;7.82;6.40;;;;;;;24.00;61.85;99869.56;5090104;28;20044;-74
2022/08/17 09:48:27;;;;;;;8.50;6.50;;;;;;;24.42;61.71;99877.47;5092974;28;20055;-73
2022/08/17 09:51:14;;;;;;;11.40;6.47;;;;;;;24.75;57.24;99878.19;5093049;28;20071;-74
2022/08/17 09:53:41;;;;;;;9.00;6.32;;;;;;;24.88;55.05;99862.22;5088916;28;20118;-76
2022/08/17 09:56:47;;;;;;;10.85;7.10;;;;;;;25.15;54.13;99894.31;5081899;28;20131;-75
2022/08/17 09:59:47;;;;;;;8.60;6.45;;;;;;;25.11;55.13;99867.72;5081537;28;20044;-74
2022/08/17 10:02:49;;;;;;;13.50;8.18;;;;;;;25.18;54.17;99888.50;5087150;28;20591;-77
2022/08/17 10:05:44;;;;;;;14.23;7.40;;;;;;;24.78;54.21;99891.38;5050289;28;20044;-76
2022/08/17 10:08:31;;;;;;;9.55;7.43;;;;;;;24.66;55.60;99871.13;5076732;28;20052;-76
2022/08/17 10:11:10;;;;;;;10.98;7.20;;;;;;;24.68;55.84;99879.94;5086845;28;20097;-74
2022/08/17 10:13:58;;;;;;;11.63;7.23;;;;;;;24.70;53.63;99894.16;5075695;28;20058;-74
2022/08/17 10:16:44;;;;;;;12.48;7.60;;;;;;;24.60;54.34;99883.50;5080618;28;20044;-72
2022/08/17 10:19:39;;;;;;;11.85;7.97;;;;;;;24.94;54.07;99887.81;5084099;28;20074;-76
2022/08/17 10:28:25;;;;;;;10.25;8.00;;;;;;;25.23;51.01;99874.44;5090281;28;20044;-75
2022/08/17 10:31:00;;;;;;;8.70;7.32;;;;;;;25.55;50.31;99907.75;5091037;28;20135;-73
2022/08/17 10:33:57;;;;;;;10.05;7.22;;;;;;;25.44;50.87;99882.78;5080463;28;20087;-75
2022/08/17 10:37:04;;;;;;;8.82;7.13;;;;;;;25.55;51.47;99896.91;5090064;28;20483;-74
2022/08/17 10:39:41;;;;;;;10.15;7.15;;;;;;;25.67;50.46;99917.19;5058311;28;20052;-73
2022/08/17 10:42:26;;;;;;;11.77;7.70;;;;;;;25.60;49.91;99916.22;5082341;28;20048;-76
2022/08/17 10:45:05;;;;;;;7.82;7.13;;;;;;;25.24;51.54;99894.25;5086416;28;20047;-74
2022/08/17 10:47:58;;;;;;;9.98;7.90;;;;;;;25.58;51.36;99907.41;5086250;28;20566;-75
2022/08/17 10:51:07;;;;;;;9.47;8.57;;;;;;;25.60;51.57;99902.66;5084443;28;20044;-75
2022/08/17 10:53:34;;;;;;;10.15;8.18;;;;;;;25.72;51.79;99907.50;5081032;28;20048;-75
2022/08/17 10:56:12;;;;;;;12.07;8.93;;;;;;;25.78;51.23;99917.63;5085443;28;20040;-75
2022/08/17 10:58:57;;;;;;;13.85;8.63;;;;;;;25.49;50.99;99928.31;5084577;28;20412;-73
2022/08/17 11:01:33;;;;;;;9.77;8.80;;;;;;;25.31;52.55;99923.19;5084909;28;20471;-75
2022/08/17 11:04:29;;;;;;;8.55;7.72;;;;;;;25.15;52.96;99920.56;5087019;28;20081;-72
2022/08/17 11:07:24;;;;;;;11.40;8.50;;;;;;;24.94;52.72;99902.19;5035946;28;20063;-73
2022/08/17 11:10:23;;;;;;;8.98;7.82;;;;;;;24.68;52.96;99923.25;5081141;28;20044;-73
2022/08/17 11:13:26;;;;;;;10.30;7.20;;;;;;;24.64;53.59;99933.56;5086314;28;20056;-73
2022/08/17 11:16:27;;;;;;;11.32;6.82;;;;;;;24.63;53.57;99918.34;5080107;28;20066;-72
2022/08/17 11:19:15;;;;;;;7.93;7.13;;;;;;;24.75;53.13;99932.34;5068628;28;20044;-74
2022/08/17 11:21:54;;;;;;;9.35;7.18;;;;;;;24.66;52.63;99934.25;5085133;28;20105;-74
2022/08/17 11:24:34;;;;;;;10.70;7.07;;;;;;;24.79;52.81;99955.38;5086144;28;20076;-75
2022/08/17 11:27:21;;;;;;;9.07;7.25;;;;;;;24.92;53.21;99949.38;5083791;28;20777;-75
2022/08/17 11:29:58;;;;;;;8.75;6.68;;;;;;;;;;5078282;28;20048;-74
2022/08/17 11:32:30;;;;;;;11.95;7.50;;;;;;;25.31;53.22;99944.00;5091258;28;20130;-75
2022/08/17 11:35:06;;;;;;;8.27;7.03;;;;;;;25.53;51.73;99930.47;5109806;27;20060;-74
2022/08/17 11:38:09;;;;;;;8.70;7.57;;;;;;;25.82;51.49;99926.22;5106623;28;20044;-74
2022/08/17 11:41:00;;;;;;;9.43;7.13;;;;;;;26.03;50.40;99929.13;5072895;28;20051;-75
2022/08/17 11:43:33;;;;;;;8.20;6.28;;;;;;;26.27;49.09;99928.06;5108468;28;20070;-73
2022/08/17 11:46:13;;;;;;;12.38;7.55;;;;;;;26.42;49.05;99922.69;5105348;28;20447;-74
2022/08/17 11:52:00;;;;;;;10.43;6.70;;;;;;;26.70;47.05;99928.31;5104515;28;20392;-71
2022/08/17 11:54:29;;;;;;;7.88;6.60;;;;;;;26.47;47.79;99909.38;5104533;28;20062;-73
2022/08/17 11:57:24;;;;;;;8.73;6.63;;;;;;;26.57;47.32;99939.84;5104439;28;20099;-74
2022/08/17 12:00:07;;;;;;;7.05;6.40;;;;;;;26.80;47.38;99940.59;5100497;28;21318;-75
2022/08/17 12:02:43;;;;;;;9.88;5.88;;;;;;;27.36;45.60;99930.06;5105711;28;20036;-75
2022/08/17 12:05:16;;;;;;;7.90;6.03;;;;;;;27.72;43.66;99927.31;5105491;28;20059;-77
2022/08/17 12:07:52;;;;;;;9.33;5.67;;;;;;;27.37;44.71;99934.47;5109925;28;20071;-73
2022/08/17 12:10:30;;;;;;;8.02;5.70;;;;;;;27.33;44.16;99900.53;5104437;28;20036;-75
2022/08/17 12:13:01;;;;;;;9.35;6.05;;;;;;;27.71;44.18;99925.63;5106083;28;20051;-75
2022/08/17 12:15:39;;;;;;;7.55;5.35;;;;;;;27.75;43.65;99913.34;5108737;28;20039;-75
2022/08/17 12:18:06;;;;;;;6.00;5.18;;;;;;;27.84;43.16;99919.50;5105430;28;20094;-73
2022/08/17 12:20:43;;;;;;;6.95;6.18;;;;;;;28.01;43.37;99911.91;5109743;28;20056;-74
2022/08/17 12:23:40;;;;;;;6.35;4.97;;;;;;;28.08;41.58;99908.19;5103076;28;20487;-73
2022/08/17 12:26:16;;;;;;;7.70;5.43;;;;;;;28.38;40.83;99913.47;5098004;27;20406;-71
2022/08/17 12:28:45;;;;;;;5.60;4.90;;;;;;;28.69;40.35;99915.78;5106674;27;20044;-73
2022/08/17 12:31:19;;;;;;;6.05;4.47;;;;;;;28.69;40.58;99910.31;5109834;27;20127;-74
2022/08/17 12:33:46;;;;;;;5.00;4.40;;;;;;;28.75;39.87;99912.25;5106277;27;20043;-76
2022/08/17 12:36:16;;;;;;;6.72;4.93;;;;;;;28.78;38.95;99909.13;5099177;27;20606;-76
2022/08/17 12:39:05;;;;;;;6.07;4.70;;;;;;;28.73;39.12;99901.56;5098213;28;20071;-76
2022/08/17 12:41:45;;;;;;;6.53;4.88;;;;;;;28.72;39.67;99902.59;5102009;28;20472;-74
2022/08/17 12:44:17;;;;;;;5.15;4.68;;;;;;;28.68;39.50;99898.59;5100521;28;20042;-73
2022/08/17 12:46:57;;;;;;;6.57;4.75;;;;;;;28.33;39.76;99896.91;5102797;27;20056;-72
2022/08/17 12:49:29;;;;;;;5.30;4.35;;;;;;;28.33;40.44;99907.81;5096509;28;20048;-71